【METAR】 空港の天気 【TAF】 [無断転載禁止]©2ch.net

1名無しSUN2016/05/30(月) 23:17:28.89ID:SlFWcLbl
ここで調べて近くの空港の天気を貼りつけましょう

空港の天気
https://www.time-j.net/Metar/Japan

METARの読み方
https://www.time-j.net/Metar/HowToRead

172名無しSUN2017/05/25(木) 16:49:26.33ID:YF98kO65
RJNA 250707Z VRB01KT 9999 -RA FEW020 SCT040 BKN100 22/17 Q1004
RMK 1CU020 3SC040 6AC100 A2966=

173名無しSUN2017/05/29(月) 21:27:42.10ID:H+EPIoFz
05/29 21:00
METAR RJNA 291200Z 15009KT 9999 FEW050 23/11 Q1012 RMK 1SC050 A2990=

174名無しSUN2017/06/01(木) 21:12:32.06ID:IHoRv8aQ
06/01 20:00
METAR RJNA 011100Z 20008KT 9999 FEW025 SCT120 BKN/// 26/17 Q0995 RMK
1CU025 3AC120 A2941=

Q0995・・・ 995hPa 気圧低い

175名無しSUN2017/06/06(火) 23:53:00.90ID:ha7EikQB
06/06 23:00
METAR RJNA 061400Z 11005KT 9999 FEW030 SCT040 BKN/// 20/14 Q1019 RMK
1CU030 3SC040 A3010=

176名無しSUN2017/06/12(月) 23:43:38.95ID:XKxNOb2n
06/12 23:00
METAR RJNA 121400Z 31008KT 9999 FEW030 BKN/// 18/10 Q1013 RMK 1CU030
A2992=

夜は涼しい

177名無しSUN2017/06/18(日) 21:59:46.56ID:k9AF/ryy
06/18 21:00
METAR RJNA 181200Z 15004KT 9999 FEW040 BKN150 BKN/// 23/15 Q1008 RMK
2SC040 5AC150 A2978=

178名無しSUN2017/06/22(木) 14:36:29.45ID:lPQrWQRo
RJNA(METAR)
06/22 14:00
METAR RJNA 220500Z 22004KT 9999 FEW025 BKN250 29/13 Q1007 RMK 1CU025
A2974=

179名無しSUN2017/06/23(金) 21:28:26.91ID:IkZ62mjd
06/23 21:00
METAR RJNA 231200Z 16006KT 130V190 9999 SCT/// 24/18 Q1006 RMK A2973=

180名無しSUN2017/06/28(水) 23:23:56.89ID:+u3qWf3V
06/28 23:00
METAR RJNA 281400Z 15004KT 9999 FEW030 BKN/// 23/21 Q1013 RMK 1CU030
A2992=

181名無しSUN2017/06/29(木) 20:24:07.13ID:253qECWB
06/29 20:00
METAR RJNA 291100Z 16008KT 9999 FEW030 SCT120 BKN150 26/20 Q1013 RMK
2CU030 3AC120 5AC150 A2992=

182名無しSUN2017/07/01(土) 12:33:37.03ID:SXyFp6je
何やってるの?

183名無しSUN2017/07/04(火) 00:53:09.76ID:Jn/m38DW
07/04 00:00
METAR RJNA 031500Z 29004KT 9999 FEW030 SCT170 BKN/// 30/23 Q1007 RMK
1CU030 3AC170 A2976=

いまだ30度あるよ

184名無しSUN2017/07/05(水) 22:02:32.20ID:vhqk3R5/
07/05 21:00
METAR RJNA 051200Z 29006KT 260V320 9999 FEW025 BKN/// 26/20 Q1010 RMK
1CU025 A2983=

185名無しSUN2017/07/10(月) 21:39:09.06ID:qnTpULSW
07/10 21:00
METAR RJNA 101200Z VRB01KT 9999 FEW025 SCT150 26/25 Q1011 RMK 1CU025
3AC150 A2987=

186名無しSUN2017/07/13(木) 22:03:23.83ID:1mn76el8
07/13 21:00
METAR RJNA 131200Z 15009KT 9999 FEW025 SCT040 27/24 Q1010 RMK 1CU025
4SC040 A2985=

SC=層積雲(くもりぐも)

187名無しSUN2017/07/14(金) 20:44:44.46ID:l2rb1WXH
07/14 20:00
METAR RJNA 141100Z 01003KT 320V040 9999 FEW030 BKN120 28/24 Q1012 RMK
2CU030 5AC120 A2989=

AC=高積雲(ひつじぐも)

188名無しSUN2017/07/16(日) 22:50:25.37ID:L2apFmE3
07/14 20:00
METAR RJNA 141100Z 01003KT 320V040 9999 FEW030 BKN120 28/24 Q1012 RMK
2CU030 5AC120 A2989=

AC=高積雲(ひつじぐも)

189名無しSUN2017/07/16(日) 23:13:11.89ID:L2apFmE3
07/16 22:00
METAR RJNA 161300Z VRB02KT 9999 FEW180 BKN/// 30/22 Q1010 RMK 1AC180
A2985=

1AC180 全天1/8のAC(高積雲)が18000フィート(5400m)にある

190名無しSUN2017/07/20(木) 20:42:42.36ID:4mAy7z7k
07/20 20:00
METAR RJNA 201100Z 17008KT 140V200 9999 FEW030 29/23 Q1010 RMK 1CU030
A2985=

191名無しSUN2017/07/24(月) 21:26:05.59ID:Xz5JrKka
07/24 21:00
METAR RJNA 241200Z 15008KT 9999 -TSRA FEW025 FEW030CB SCT050 BKN100
29/24 Q1003 RMK 1CU025 1CB030 3SC050 6AC100 A2963 FBL TS
NW=

-TSRA=弱い(-)雷(TS)雨(RA)

1CU025 全天の1/8のCU(積雲)が2500フィート(750m)にある
1CB030 全天の1/8のCB(積乱雲)が3000フィート(900m)にある
3SC050 全天の3/8のSC(層積雲)が5000フィート(1500m)にある
6AC100 全天の6/8のAC(高積雲)が10000フィート(3000m)にある

192名無しSUN2017/07/26(水) 21:23:45.65ID:EIKDmDMQ
07/26 21:00
METAR RJNA 261200Z 15012KT 9999 FEW020 BKN030 BKN050 29/25 Q1006 RMK
1CU020 5CU030 7SC050 A2973=

193名無しSUN2017/08/01(火) 23:13:09.37ID:EOtBf43x
08/01 23:00
METAR RJNA 011400Z 31006KT 9999 FEW030 BKN/// 28/22 Q1006 RMK 1CU030
A2973=

194名無しSUN2017/08/02(水) 22:28:20.06ID:nAi+b02b
08/02 22:00
METAR RJNA 021300Z 24005KT 200V300 9999 FEW020 BKN040 27/22 Q1008 RMK
1CU020 7SC040 A2977=

195名無しSUN2017/08/03(木) 20:37:56.67ID:PEHI2jWo
08/03 20:00
METAR RJNA 031100Z 19007KT 9999 FEW030 SCT050 BKN100 30/23 Q1009 RMK
1CU030 3SC050 6AC100 A2980=

1CU030 全天の1/8のCU(積雲)が3000フィート(900m)にある
3SC050 全天の3/8のSC(層積雲)が5000フィート(1500m)にある
6AC100 全天の6/8のAC(高積雲)が10000フィート(3000m)にある

196名無しSUN2017/08/07(月) 20:22:43.46ID:rqJXwVvV
08/07 19:36
RJNA 071036Z 11019G29KT 1500 R16/0700V1300D +SHRA BR FEW008
BKN015 BKN025 26/25 Q0987 RMK 2ST008 7CU015 7CU025 A2916
R0900 RI++=

R16/0700V1300D ・・・16番滑走路視程700mから1300m可変

197名無しSUN2017/08/08(火) 21:19:52.85ID:IBBGRqqP
08/08 20:00
METAR RJNA 081100Z 29012G22KT 9999 FEW050 28/23 Q0995 RMK 1SC050
A2941=

29012G22KT ・・・・北から時計回りに290度(西北西)の風12ノット(6m/s) G(最大風速)22ノット(11m/s)

198名無しSUN2017/08/09(水) 20:42:28.60ID:s0kYT5Rk
08/09 20:00
METAR RJNA 091100Z 30006KT 270V330 9999 FEW030 BKN/// 31/21 Q0996 RMK
1CU030 A2944=

199名無しSUN2017/08/10(木) 21:00:07.04ID:tudwQhxv
08/10 20:19
RJNA 101119Z 15011KT 2000 R34/0500VP1800D +TSRA FEW008 BKN010
BKN025CB 27/26 Q1000 RMK 1ST008 5CU010 7CB025 A2953 R0800
VIS SW 1500M MOD TS OHD MOV E RI++=

VIS SW 1500M MOD TS OHD MOV E 視程南西1500m 並の(MOD)雷雨(TS)上空から(OHD)東へ(E)動く(MOV)

200名無しSUN2017/08/16(水) 22:03:55.69ID:WJc2m8lH
08/16 21:00
METAR RJNA 161200Z 24006KT 200V290 9999 FEW015 SCT030 BKN050 27/24
Q1006 RMK 1CU015 3CU030 7SC050 A2971=

201名無しSUN2017/08/17(木) 20:45:34.64ID:zcBY0/Bx
08/17 20:00
METAR RJNA 171100Z 16010KT 9999 FEW030 SCT/// 28/23 Q1008 RMK 1CU030
A2979 LIGHTNING W=

202名無しSUN2017/08/18(金) 22:08:21.84ID:oTJbco5m
08/18 22:00
METAR RJNA 181300Z 15003KT 9999 TS FEW015 SCT025CB BKN045 27/26 Q1009
RERA RMK 2CU015 4CB025 7SC045 A2981 FBL TS OHD=

RERA・・・Recent Rain(最近雨が降った)

203名無しSUN2017/08/21(月) 21:29:58.57ID:sveWbpIW
08/21 21:00
METAR RJNA 211200Z 16009KT 130V190 9999 FEW020 BKN/// 29/24 Q1013 RMK
1CU020 A2994=

204名無しSUN2017/08/22(火) 20:12:37.53ID:pGbVj/DX
08/22 19:00
METAR RJNA 221000Z 08004KT 050V110 9999 FEW010 SCT030 BKN040 25/23
Q1013 RETS RMK 1CU010 3CU030 5SC040 A2994=

RETS・・・Recent Thunder Storm

205名無しSUN2017/08/24(木) 22:13:21.80ID:9LEARvG1
08/24 21:00
METAR RJNA 241200Z VRB01KT 9999 FEW050 32/22 Q1007 RMK 1SC050 A2975=

夜なのに32度もある
32/22 気温32度 露点温度22度 湿度56%

206名無しSUN2017/08/28(月) 20:20:25.25ID:gmVLVjZn
08/28 20:00
METAR RJNA 281100Z 22004KT 200V260 9999 FEW030 BKN100 BKN/// 28/24
Q1011 RMK 1CU030 5AC100 A2988=

207名無しSUN2017/08/29(火) 20:27:38.95ID:FTABe1kA
08/29 20:00
METAR RJNA 291100Z 18005KT 9999 FEW030 BKN/// 30/25 Q1008 RMK 1CU030
A2979=

208名無しSUN2017/08/30(水) 21:59:19.45ID:J5ovfgXN
08/30 21:00
METAR RJNA 301200Z 32008KT 9999 FEW/// 27/18 Q1006 RMK A2973=

27/18 ・・・気温27度 露点温度18度 湿度58%

209名無しSUN2017/08/31(木) 22:08:54.90ID:w9ZL9l+j
08/31 21:00
METAR RJNA 311200Z 31011KT 9999 FEW040 26/15 Q1002 RMK 1CU040 A2961=

26/15 ・・・気温26度 露点温度15度 湿度51%

210名無しSUN2017/09/01(金) 22:09:32.41ID:y3nJeBqk
09/01 22:00
METAR RJNA 011300Z 31009KT 9999 FEW030 SCT180 BKN/// 25/17 Q1005 RMK
1CU030 3AC180 A2968=

211名無しSUN2017/09/05(火) 21:52:18.29ID:lVSJrfkZ
09/05 21:00
METAR RJNA 051200Z 30003KT 270V330 9999 -RA FEW020 BKN040 OVC070
25/22 Q1012 RMK 2CU020 5SC040 8AS070 A2989=

OVC070・・・オーバークラウド 7000フィート(2100m)

212名無しSUN2017/09/06(水) 21:29:52.48ID:BSvPwgnt
09/06 21:00
METAR RJNA 061200Z VRB02KT 9999 FEW020 BKN080 25/22 Q1007 RMK 1CU020
6AC080 A2974=

213名無しSUN2017/09/08(金) 20:30:44.12ID:dV6Emrse
09/08 20:00
METAR RJNA 081100Z 31009KT 9999 FEW050 26/18 Q1007 RMK 1SC050 A2976=

214名無しSUN2017/09/11(月) 20:43:31.67ID:nCmpUJDc
09/11 20:00
METAR RJNA 111100Z 13014KT 090V160 9999 FEW020 SCT030 BKN050 26/20
Q1011 RMK 1CU020 3CU030 6SC050 A2988 MAX WIND 21KT=

MAX WIND 21KT・・・最大風速21ノット(11m/s)

215名無しSUN2017/09/12(火) 20:52:02.58ID:s8UrVO1Q
09/12 20:00
METAR RJNA 121100Z 27007KT 9999 FEW030 SCT100 BKN/// 25/21 Q1010 RMK
1CU030 3AC100 A2985=

216名無しSUN2017/09/13(水) 21:09:49.08ID:ZrQ+Nv9a
09/13 20:00
METAR RJNA 131100Z 29010KT 9999 FEW030 BKN/// 27/16 Q1014 RMK 1CU030
A2997=

217名無しSUN2017/09/14(木) 21:03:28.65ID:JXkGEEdC
09/14 20:00
METAR RJNA 141100Z 31012KT 9999 FEW180 BKN/// 24/14 Q1015 RMK 1AC180
A2998=

218名無しSUN2017/09/15(金) 20:47:05.90ID:ezD+jDwU
09/15 20:00
METAR RJNA 151100Z 36003KT 9999 FEW030 BKN/// 24/15 Q1016 RMK 1CU030
A3002=

219名無しSUN2017/09/19(火) 21:32:15.10ID:904XcOlk
09/19 21:00
METAR RJNA 191200Z 04004KT 9999 FEW030 BKN/// 24/19 Q1010 RMK 1CU030
A2985=

220名無しSUN2017/09/20(水) 20:47:11.70ID:JKYkWTU4
09/20 20:00
METAR RJNA 201100Z 33003KT 290V020 7000 FEW020 SCT100 BKN170 22/20
Q1009 RMK 2CU020 3AC100 7AC170 A2981=

221名無しSUN2017/09/21(木) 21:37:50.48ID:AJ1iOYiz
09/21 21:00
METAR RJNA 211200Z 32004KT 280V350 9999 FEW030 BKN/// 22/16 Q1013 RMK
1CU030 A2993=

222名無しSUN2017/09/22(金) 22:07:53.41ID:7mPLeILp
09/22 21:00
METAR RJNA 221200Z 34006KT 8000 FEW015 BKN045 BKN100 20/20 Q1013 RMK
1CU015 5SC045 7AC100 A2994=

新着レスの表示
レスを投稿する